Terminal Aerodrome Forecast
Issued by NWS

Home | Current Version | Previous Version | Text Only | Print | Product List | Glossary On
Versions: 1 2 3 4 5 6 7 8 9 10 11 12 13 14 15 16 17 18 19 20 21 22 23 24 25 26 27 28
000
FTUS41 KCTP 302131 AAA
TAFJST
TAF AMD
KJST 302131Z 3022/0118 08008G16KT 5SM BR OVC004
     FM010300 08008KT 2SM -DZ BR OVC003
     FM011700 12008KT 5SM BR BKN009 OVC015=

USA.gov is the U.S. government's official web portal to all federal, state and local government web resources and services.